sensor_id;sensor_type;location;lat;lon;timestamp;pressure;altitude;pressure_sealevel;temperature;humidity
37450;BME280;23309;52.582;13.406;2022-09-17T00:00:25;99728.28;;;19.59;50.65
37450;BME280;23309;52.582;13.406;2022-09-17T00:02:54;99723.53;;;19.48;50.72
37450;BME280;23309;52.582;13.406;2022-09-17T00:05:20;99739.56;;;19.56;51.02
37450;BME280;23309;52.582;13.406;2022-09-17T00:07:47;99749.97;;;19.59;50.73
37450;BME280;23309;52.582;13.406;2022-09-17T00:10:13;99746.00;;;19.61;51.13
37450;BME280;23309;52.582;13.406;2022-09-17T00:12:42;99746.59;;;19.63;50.83
37450;BME280;23309;52.582;13.406;2022-09-17T00:15:10;99746.59;;;19.63;50.93
37450;BME280;23309;52.582;13.406;2022-09-17T00:17:36;99758.00;;;19.78;50.67
37450;BME280;23309;52.582;13.406;2022-09-17T00:20:04;99744.91;;;19.69;50.54
37450;BME280;23309;52.582;13.406;2022-09-17T00:22:30;99754.69;;;19.70;50.64
37450;BME280;23309;52.582;13.406;2022-09-17T00:24:56;99762.19;;;19.74;50.34
37450;BME280;23309;52.582;13.406;2022-09-17T00:27:23;99760.91;;;19.77;50.24
37450;BME280;23309;52.582;13.406;2022-09-17T00:29:51;99763.44;;;19.72;50.59
37450;BME280;23309;52.582;13.406;2022-09-17T00:32:20;99762.63;;;19.65;50.51
37450;BME280;23309;52.582;13.406;2022-09-17T00:34:46;99767.28;;;19.58;51.12
37450;BME280;23309;52.582;13.406;2022-09-17T00:37:14;99748.34;;;19.51;51.10
37450;BME280;23309;52.582;13.406;2022-09-17T00:39:40;99753.94;;;19.56;51.09
37450;BME280;23309;52.582;13.406;2022-09-17T00:42:09;99779.72;;;19.65;50.73
37450;BME280;23309;52.582;13.406;2022-09-17T00:44:44;99782.81;;;19.75;50.65
37450;BME280;23309;52.582;13.406;2022-09-17T00:47:30;99761.53;;;19.72;50.81
37450;BME280;23309;52.582;13.406;2022-09-17T00:50:02;99759.75;;;19.60;51.15
37450;BME280;23309;52.582;13.406;2022-09-17T00:52:34;99769.06;;;19.70;51.26
37450;BME280;23309;52.582;13.406;2022-09-17T00:55:09;99764.69;;;19.76;50.35
37450;BME280;23309;52.582;13.406;2022-09-17T00:57:39;99791.78;;;19.76;50.94
37450;BME280;23309;52.582;13.406;2022-09-17T01:00:08;99787.34;;;19.81;50.59
37450;BME280;23309;52.582;13.406;2022-09-17T01:02:37;99779.63;;;19.85;50.89
37450;BME280;23309;52.582;13.406;2022-09-17T01:05:05;99776.91;;;19.85;50.39
37450;BME280;23309;52.582;13.406;2022-09-17T01:07:54;99787.44;;;19.99;50.13
37450;BME280;23309;52.582;13.406;2022-09-17T01:13:29;99803.72;;;19.99;50.47
37450;BME280;23309;52.582;13.406;2022-09-17T01:16:06;99783.56;;;19.89;50.00
37450;BME280;23309;52.582;13.406;2022-09-17T01:18:52;99770.44;;;19.86;49.98
37450;BME280;23309;52.582;13.406;2022-09-17T01:21:48;99808.03;;;20.13;49.82
37450;BME280;23309;52.582;13.406;2022-09-17T01:28:28;99811.97;;;20.17;50.00
37450;BME280;23309;52.582;13.406;2022-09-17T01:31:29;99805.13;;;20.08;49.96
37450;BME280;23309;52.582;13.406;2022-09-17T01:34:07;99810.81;;;20.00;50.52
37450;BME280;23309;52.582;13.406;2022-09-17T01:36:45;99800.94;;;20.12;50.19
37450;BME280;23309;52.582;13.406;2022-09-17T01:39:27;99805.00;;;20.28;49.82
37450;BME280;23309;52.582;13.406;2022-09-17T01:42:03;99804.63;;;20.24;49.96
37450;BME280;23309;52.582;13.406;2022-09-17T01:44:37;99809.34;;;20.35;49.53
37450;BME280;23309;52.582;13.406;2022-09-17T01:47:12;99810.56;;;20.39;49.41
37450;BME280;23309;52.582;13.406;2022-09-17T01:49:40;99799.75;;;20.33;49.31
37450;BME280;23309;52.582;13.406;2022-09-17T01:52:08;99806.88;;;20.34;49.47
37450;BME280;23309;52.582;13.406;2022-09-17T01:54:40;99814.13;;;20.40;49.11
37450;BME280;23309;52.582;13.406;2022-09-17T01:57:12;99793.94;;;20.29;48.92
37450;BME280;23309;52.582;13.406;2022-09-17T01:59:44;99809.16;;;20.30;49.13
37450;BME280;23309;52.582;13.406;2022-09-17T02:02:16;99817.47;;;20.35;49.74
37450;BME280;23309;52.582;13.406;2022-09-17T02:04:53;99816.88;;;20.33;49.64
37450;BME280;23309;52.582;13.406;2022-09-17T02:07:22;99827.34;;;20.30;49.92
37450;BME280;23309;52.582;13.406;2022-09-17T02:09:54;99823.56;;;20.31;49.67
37450;BME280;23309;52.582;13.406;2022-09-17T02:12:28;99838.41;;;20.28;50.06
37450;BME280;23309;52.582;13.406;2022-09-17T02:15:00;99824.09;;;20.15;50.19
37450;BME280;23309;52.582;13.406;2022-09-17T02:17:34;99814.72;;;20.11;50.37
37450;BME280;23309;52.582;13.406;2022-09-17T02:20:02;99810.81;;;20.00;50.30
37450;BME280;23309;52.582;13.406;2022-09-17T02:22:34;99831.97;;;20.23;50.16
37450;BME280;23309;52.582;13.406;2022-09-17T02:25:07;99818.69;;;20.08;50.36
37450;BME280;23309;52.582;13.406;2022-09-17T02:27:47;99830.53;;;20.20;50.19
37450;BME280;23309;52.582;13.406;2022-09-17T02:30:16;99824.72;;;20.17;50.61
37450;BME280;23309;52.582;13.406;2022-09-17T02:32:45;99830.38;;;20.09;50.34
37450;BME280;23309;52.582;13.406;2022-09-17T02:35:12;99824.75;;;20.04;50.59
37450;BME280;23309;52.582;13.406;2022-09-17T02:37:39;99838.06;;;20.18;50.81
37450;BME280;23309;52.582;13.406;2022-09-17T02:40:07;99837.00;;;20.19;50.62
37450;BME280;23309;52.582;13.406;2022-09-17T02:42:50;99835.06;;;20.26;50.33
37450;BME280;23309;52.582;13.406;2022-09-17T02:45:30;99807.44;;;20.11;50.32
37450;BME280;23309;52.582;13.406;2022-09-17T02:48:18;99830.31;;;20.22;50.59
37450;BME280;23309;52.582;13.406;2022-09-17T02:51:00;99835.94;;;20.20;50.78
37450;BME280;23309;52.582;13.406;2022-09-17T02:53:42;99838.03;;;20.25;50.79
37450;BME280;23309;52.582;13.406;2022-09-17T02:56:19;99823.06;;;20.16;50.45
37450;BME280;23309;52.582;13.406;2022-09-17T02:58:56;99815.72;;;20.16;50.68
37450;BME280;23309;52.582;13.406;2022-09-17T03:01:35;99818.41;;;20.23;50.53
37450;BME280;23309;52.582;13.406;2022-09-17T03:04:11;99831.69;;;20.31;50.70
37450;BME280;23309;52.582;13.406;2022-09-17T03:06:40;99825.22;;;20.32;50.50
37450;BME280;23309;52.582;13.406;2022-09-17T03:09:07;99829.16;;;20.36;50.22
37450;BME280;23309;52.582;13.406;2022-09-17T03:11:33;99818.78;;;20.26;50.44
37450;BME280;23309;52.582;13.406;2022-09-17T03:13:59;99830.06;;;20.30;50.43
37450;BME280;23309;52.582;13.406;2022-09-17T03:16:27;99825.00;;;20.33;50.74
37450;BME280;23309;52.582;13.406;2022-09-17T03:18:54;99828.56;;;20.34;50.42
37450;BME280;23309;52.582;13.406;2022-09-17T03:21:22;99826.03;;;20.39;50.24
37450;BME280;23309;52.582;13.406;2022-09-17T03:23:49;99834.16;;;20.39;50.44
37450;BME280;23309;52.582;13.406;2022-09-17T03:26:15;99830.38;;;20.40;50.57
37450;BME280;23309;52.582;13.406;2022-09-17T03:28:41;99824.16;;;20.33;50.26
37450;BME280;23309;52.582;13.406;2022-09-17T03:31:08;99831.88;;;20.36;50.22
37450;BME280;23309;52.582;13.406;2022-09-17T03:33:35;99826.28;;;20.31;50.67
37450;BME280;23309;52.582;13.406;2022-09-17T03:36:01;99818.22;;;20.18;50.40
37450;BME280;23309;52.582;13.406;2022-09-17T03:38:30;99834.63;;;20.29;50.47
37450;BME280;23309;52.582;13.406;2022-09-17T03:40:58;99828.38;;;20.29;50.39
37450;BME280;23309;52.582;13.406;2022-09-17T03:43:25;99822.13;;;20.28;50.20
37450;BME280;23309;52.582;13.406;2022-09-17T03:45:51;99832.94;;;20.35;49.99
37450;BME280;23309;52.582;13.406;2022-09-17T03:48:19;99820.91;;;20.24;50.42
37450;BME280;23309;52.582;13.406;2022-09-17T03:50:45;99829.63;;;20.26;50.51
37450;BME280;23309;52.582;13.406;2022-09-17T03:53:12;99822.22;;;20.15;50.70
37450;BME280;23309;52.582;13.406;2022-09-17T03:55:40;99835.06;;;20.26;50.42
37450;BME280;23309;52.582;13.406;2022-09-17T03:58:07;99837.56;;;20.28;50.75
37450;BME280;23309;52.582;13.406;2022-09-17T04:00:38;99825.97;;;20.14;50.27
37450;BME280;23309;52.582;13.406;2022-09-17T04:03:05;99827.28;;;19.99;50.76
37450;BME280;23309;52.582;13.406;2022-09-17T04:05:32;99842.06;;;20.03;51.06
37450;BME280;23309;52.582;13.406;2022-09-17T04:07:58;99845.22;;;20.00;51.34
37450;BME280;23309;52.582;13.406;2022-09-17T04:10:24;99831.09;;;19.91;51.18
37450;BME280;23309;52.582;13.406;2022-09-17T04:12:53;99854.19;;;20.00;51.60
37450;BME280;23309;52.582;13.406;2022-09-17T04:15:19;99856.06;;;20.00;51.42
37450;BME280;23309;52.582;13.406;2022-09-17T04:17:47;99826.13;;;19.82;51.58
37450;BME280;23309;52.582;13.406;2022-09-17T04:20:13;99833.59;;;19.86;51.81
37450;BME280;23309;52.582;13.406;2022-09-17T04:22:40;99841.28;;;19.96;51.58
37450;BME280;23309;52.582;13.406;2022-09-17T04:25:07;99848.53;;;20.02;51.77
37450;BME280;23309;52.582;13.406;2022-09-17T04:27:36;99851.22;;;20.08;51.82
37450;BME280;23309;52.582;13.406;2022-09-17T04:30:07;99837.25;;;20.05;51.47
37450;BME280;23309;52.582;13.406;2022-09-17T04:32:33;99841.84;;;20.04;51.13
37450;BME280;23309;52.582;13.406;2022-09-17T04:35:00;99857.47;;;20.15;50.91
37450;BME280;23309;52.582;13.406;2022-09-17T04:37:26;99846.84;;;20.07;51.57
37450;BME280;23309;52.582;13.406;2022-09-17T04:39:52;99858.47;;;20.21;51.30
37450;BME280;23309;52.582;13.406;2022-09-17T04:42:21;99839.75;;;20.13;50.74
37450;BME280;23309;52.582;13.406;2022-09-17T04:44:47;99841.19;;;20.15;51.09
37450;BME280;23309;52.582;13.406;2022-09-17T04:47:16;99854.03;;;20.26;51.11
37450;BME280;23309;52.582;13.406;2022-09-17T04:49:42;99851.81;;;20.17;50.79
37450;BME280;23309;52.582;13.406;2022-09-17T04:52:08;99844.06;;;20.20;50.75
37450;BME280;23309;52.582;13.406;2022-09-17T04:54:35;99838.63;;;20.27;50.42
37450;BME280;23309;52.582;13.406;2022-09-17T04:57:01;99843.19;;;20.26;50.57
37450;BME280;23309;52.582;13.406;2022-09-17T04:59:27;99844.84;;;20.34;50.20
37450;BME280;23309;52.582;13.406;2022-09-17T05:01:53;99844.63;;;20.29;50.00
37450;BME280;23309;52.582;13.406;2022-09-17T05:04:24;99852.97;;;20.34;50.23
37450;BME280;23309;52.582;13.406;2022-09-17T05:06:53;99843.19;;;20.26;50.60
37450;BME280;23309;52.582;13.406;2022-09-17T05:09:20;99841.97;;;20.22;50.55
37450;BME280;23309;52.582;13.406;2022-09-17T05:11:46;99846.38;;;20.23;50.45
37450;BME280;23309;52.582;13.406;2022-09-17T05:14:13;99863.41;;;20.30;50.27
37450;BME280;23309;52.582;13.406;2022-09-17T05:16:39;99870.09;;;20.28;50.30
37450;BME280;23309;52.582;13.406;2022-09-17T05:19:05;99854.94;;;20.20;50.64
37450;BME280;23309;52.582;13.406;2022-09-17T05:21:34;99868.03;;;20.30;50.26
37450;BME280;23309;52.582;13.406;2022-09-17T05:24:02;99839.53;;;20.14;50.50
37450;BME280;23309;52.582;13.406;2022-09-17T05:26:28;99858.22;;;20.22;50.67
37450;BME280;23309;52.582;13.406;2022-09-17T05:28:54;99881.94;;;20.40;50.81
37450;BME280;23309;52.582;13.406;2022-09-17T05:31:20;99858.81;;;20.31;49.94
37450;BME280;23309;52.582;13.406;2022-09-17T05:33:46;99867.31;;;20.41;50.24
37450;BME280;23309;52.582;13.406;2022-09-17T05:36:13;99874.81;;;20.45;50.24
37450;BME280;23309;52.582;13.406;2022-09-17T05:38:41;99865.44;;;20.41;50.21
37450;BME280;23309;52.582;13.406;2022-09-17T05:41:08;99884.19;;;20.49;50.15
37450;BME280;23309;52.582;13.406;2022-09-17T05:43:34;99879.91;;;20.60;50.37
37450;BME280;23309;52.582;13.406;2022-09-17T05:46:01;99878.41;;;20.64;50.35
37450;BME280;23309;52.582;13.406;2022-09-17T05:48:28;99861.75;;;20.60;50.18
37450;BME280;23309;52.582;13.406;2022-09-17T05:50:54;99878.31;;;20.77;49.80
37450;BME280;23309;52.582;13.406;2022-09-17T05:53:20;99886.44;;;20.77;49.64
37450;BME280;23309;52.582;13.406;2022-09-17T05:55:49;99872.13;;;20.70;49.62
37450;BME280;23309;52.582;13.406;2022-09-17T05:58:18;99885.22;;;20.73;49.72
37450;BME280;23309;52.582;13.406;2022-09-17T06:00:46;99871.88;;;20.71;49.88
37450;BME280;23309;52.582;13.406;2022-09-17T06:03:14;99880.00;;;20.71;49.76
37450;BME280;23309;52.582;13.406;2022-09-17T06:05:41;99895.88;;;20.74;49.59
37450;BME280;23309;52.582;13.406;2022-09-17T06:08:08;99893.94;;;20.81;50.22
37450;BME280;23309;52.582;13.406;2022-09-17T06:10:35;99892.03;;;20.82;49.47
37450;BME280;23309;52.582;13.406;2022-09-17T06:13:04;99899.75;;;20.85;49.38
37450;BME280;23309;52.582;13.406;2022-09-17T06:15:30;99905.19;;;20.85;49.38
37450;BME280;23309;52.582;13.406;2022-09-17T06:17:57;99904.31;;;20.91;50.03
37450;BME280;23309;52.582;13.406;2022-09-17T06:20:23;99899.06;;;20.96;49.74
37450;BME280;23309;52.582;13.406;2022-09-17T06:22:55;99895.91;;;20.99;49.05
37450;BME280;23309;52.582;13.406;2022-09-17T06:25:21;99911.09;;;21.06;49.64
37450;BME280;23309;52.582;13.406;2022-09-17T06:27:47;99909.81;;;21.09;48.77
37450;BME280;23309;52.582;13.406;2022-09-17T06:30:16;99908.41;;;21.00;49.32
37450;BME280;23309;52.582;13.406;2022-09-17T06:32:43;99900.44;;;21.05;49.14
37450;BME280;23309;52.582;13.406;2022-09-17T06:35:10;99898.78;;;21.04;48.68
37450;BME280;23309;52.582;13.406;2022-09-17T06:37:39;99902.78;;;21.01;48.25
37450;BME280;23309;52.582;13.406;2022-09-17T06:40:08;99921.88;;;21.13;48.57
37450;BME280;23309;52.582;13.406;2022-09-17T06:42:37;99926.72;;;21.11;48.40
37450;BME280;23309;52.582;13.406;2022-09-17T06:45:04;99918.63;;;21.04;48.35
37450;BME280;23309;52.582;13.406;2022-09-17T06:47:33;99914.44;;;21.08;48.48
37450;BME280;23309;52.582;13.406;2022-09-17T06:49:59;99904.44;;;21.02;47.74
37450;BME280;23309;52.582;13.406;2022-09-17T06:52:25;99915.25;;;21.09;48.39
37450;BME280;23309;52.582;13.406;2022-09-17T06:54:51;99919.22;;;21.06;48.81
37450;BME280;23309;52.582;13.406;2022-09-17T06:57:17;99922.06;;;21.18;47.90
37450;BME280;23309;52.582;13.406;2022-09-17T06:59:43;99916.25;;;21.14;47.58
37450;BME280;23309;52.582;13.406;2022-09-17T07:02:09;99925.81;;;21.17;47.93
37450;BME280;23309;52.582;13.406;2022-09-17T07:04:38;99936.25;;;21.20;47.64
37450;BME280;23309;52.582;13.406;2022-09-17T07:07:04;99921.88;;;21.13;47.79
37450;BME280;23309;52.582;13.406;2022-09-17T07:09:30;99921.34;;;21.04;47.46
37450;BME280;23309;52.582;13.406;2022-09-17T07:11:56;99921.94;;;21.06;47.33
37450;BME280;23309;52.582;13.406;2022-09-17T07:14:22;99935.69;;;21.11;47.49
37450;BME280;23309;52.582;13.406;2022-09-17T07:16:48;99922.78;;;21.07;47.87
37450;BME280;23309;52.582;13.406;2022-09-17T07:19:15;99922.41;;;21.03;47.63
37450;BME280;23309;52.582;13.406;2022-09-17T07:21:43;99925.22;;;21.15;47.00
37450;BME280;23309;52.582;13.406;2022-09-17T07:24:09;99942.84;;;21.30;47.58
37450;BME280;23309;52.582;13.406;2022-09-17T07:26:35;99937.78;;;21.34;47.27
37450;BME280;23309;52.582;13.406;2022-09-17T07:29:02;99938.59;;;21.34;47.49
37450;BME280;23309;52.582;13.406;2022-09-17T07:31:28;99854.41;;;20.92;46.60
37450;BME280;23309;52.582;13.406;2022-09-17T07:33:54;99917.78;;;21.28;46.66
37450;BME280;23309;52.582;13.406;2022-09-17T07:36:20;99925.22;;;21.39;46.68
37450;BME280;23309;52.582;13.406;2022-09-17T07:38:49;99934.41;;;21.56;46.55
37450;BME280;23309;52.582;13.406;2022-09-17T07:41:16;99937.06;;;21.63;46.44
37450;BME280;23309;52.582;13.406;2022-09-17T07:43:43;99923.47;;;21.63;45.36
37450;BME280;23309;52.582;13.406;2022-09-17T07:46:14;99939.31;;;21.72;45.36
37450;BME280;23309;52.582;13.406;2022-09-17T07:48:40;99933.13;;;21.59;45.16
37450;BME280;23309;52.582;13.406;2022-09-17T07:51:06;99936.84;;;21.64;45.57
37450;BME280;23309;52.582;13.406;2022-09-17T07:53:33;99911.09;;;21.49;45.46
37450;BME280;23309;52.582;13.406;2022-09-17T07:56:01;99933.88;;;21.72;45.02
37450;BME280;23309;52.582;13.406;2022-09-17T07:58:30;99920.91;;;21.68;44.76
37450;BME280;23309;52.582;13.406;2022-09-17T08:00:59;99927.81;;;21.70;45.58
37450;BME280;23309;52.582;13.406;2022-09-17T08:03:28;99936.66;;;21.84;44.74
37450;BME280;23309;52.582;13.406;2022-09-17T08:06:01;99921.41;;;21.83;44.46
37450;BME280;23309;52.582;13.406;2022-09-17T08:08:28;99949.97;;;21.92;44.77
37450;BME280;23309;52.582;13.406;2022-09-17T08:10:54;99928.00;;;21.93;44.67
37450;BME280;23309;52.582;13.406;2022-09-17T08:13:26;99932.59;;;21.93;44.12
37450;BME280;23309;52.582;13.406;2022-09-17T08:15:54;99945.88;;;22.01;44.06
37450;BME280;23309;52.582;13.406;2022-09-17T08:18:22;99946.38;;;22.09;44.00
37450;BME280;23309;52.582;13.406;2022-09-17T08:20:48;99934.69;;;22.09;43.83
37450;BME280;23309;52.582;13.406;2022-09-17T08:23:14;99939.81;;;22.17;43.34
37450;BME280;23309;52.582;13.406;2022-09-17T08:25:40;99907.72;;;22.07;43.30
37450;BME280;23309;52.582;13.406;2022-09-17T08:28:07;99935.53;;;22.39;43.70
37450;BME280;23309;52.582;13.406;2022-09-17T08:30:36;99934.22;;;22.59;44.01
37450;BME280;23309;52.582;13.406;2022-09-17T08:33:02;99934.66;;;22.74;42.37
37450;BME280;23309;52.582;13.406;2022-09-17T08:35:28;99940.47;;;22.89;42.24
37450;BME280;23309;52.582;13.406;2022-09-17T08:37:55;99926.53;;;22.97;41.55
37450;BME280;23309;52.582;13.406;2022-09-17T08:40:21;99931.97;;;22.97;41.85
37450;BME280;23309;52.582;13.406;2022-09-17T08:42:52;99929.84;;;23.11;41.28
37450;BME280;23309;52.582;13.406;2022-09-17T08:45:20;99926.66;;;23.02;39.52
37450;BME280;23309;52.582;13.406;2022-09-17T08:47:49;99916.44;;;22.98;39.45
37450;BME280;23309;52.582;13.406;2022-09-17T08:50:21;99910.50;;;22.78;39.12
37450;BME280;23309;52.582;13.406;2022-09-17T08:53:18;99913.34;;;22.83;39.59
37450;BME280;23309;52.582;13.406;2022-09-17T08:55:57;99933.63;;;23.10;39.87
37450;BME280;23309;52.582;13.406;2022-09-17T08:58:58;99928.91;;;23.86;39.01
37450;BME280;23309;52.582;13.406;2022-09-17T09:01:43;99923.31;;;24.04;36.93
37450;BME280;23309;52.582;13.406;2022-09-17T09:05:00;99921.00;;;24.63;37.15
37450;BME280;23309;52.582;13.406;2022-09-17T09:07:30;99933.44;;;25.04;35.51
37450;BME280;23309;52.582;13.406;2022-09-17T09:10:10;99922.69;;;25.47;35.02
37450;BME280;23309;52.582;13.406;2022-09-17T09:12:39;99930.38;;;25.67;34.20
37450;BME280;23309;52.582;13.406;2022-09-17T09:15:17;99937.34;;;25.96;34.46
37450;BME280;23309;52.582;13.406;2022-09-17T09:17:47;99939.44;;;25.89;32.24
37450;BME280;23309;52.582;13.406;2022-09-17T09:20:23;99934.56;;;25.74;32.50
37450;BME280;23309;52.582;13.406;2022-09-17T09:22:53;99940.44;;;25.83;33.17
37450;BME280;23309;52.582;13.406;2022-09-17T09:25:22;99940.34;;;25.94;33.26
37450;BME280;23309;52.582;13.406;2022-09-17T09:28:05;99952.00;;;26.06;32.81
37450;BME280;23309;52.582;13.406;2022-09-17T09:30:45;99912.50;;;25.81;33.15
37450;BME280;23309;52.582;13.406;2022-09-17T09:33:19;99933.84;;;25.62;32.99
37450;BME280;23309;52.582;13.406;2022-09-17T09:35:51;99947.22;;;25.58;33.02
37450;BME280;23309;52.582;13.406;2022-09-17T09:38:23;99963.78;;;25.52;33.35
37450;BME280;23309;52.582;13.406;2022-09-17T09:41:01;99959.84;;;25.26;33.66
37450;BME280;23309;52.582;13.406;2022-09-17T09:43:40;99966.31;;;25.09;34.48
37450;BME280;23309;52.582;13.406;2022-09-17T09:46:25;99977.84;;;24.94;35.46
37450;BME280;23309;52.582;13.406;2022-09-17T09:49:07;99944.41;;;24.48;35.87
37450;BME280;23309;52.582;13.406;2022-09-17T09:51:48;99972.56;;;24.37;35.80
37450;BME280;23309;52.582;13.406;2022-09-17T09:54:34;99980.69;;;24.20;35.93
37450;BME280;23309;52.582;13.406;2022-09-17T09:57:06;99960.72;;;23.92;36.38
37450;BME280;23309;52.582;13.406;2022-09-17T09:59:34;99965.34;;;23.80;36.97
37450;BME280;23309;52.582;13.406;2022-09-17T10:02:01;99975.16;;;23.81;36.90
37450;BME280;23309;52.582;13.406;2022-09-17T10:04:28;99982.53;;;23.57;37.11
37450;BME280;23309;52.582;13.406;2022-09-17T10:07:02;99986.78;;;23.42;37.87
37450;BME280;23309;52.582;13.406;2022-09-17T10:09:29;99974.22;;;23.29;38.36
37450;BME280;23309;52.582;13.406;2022-09-17T10:12:05;99987.75;;;23.59;38.46
37450;BME280;23309;52.582;13.406;2022-09-17T10:14:40;99971.38;;;23.70;37.34
37450;BME280;23309;52.582;13.406;2022-09-17T10:17:19;99978.84;;;24.09;37.77
37450;BME280;23309;52.582;13.406;2022-09-17T10:22:34;99985.72;;;24.79;35.41
37450;BME280;23309;52.582;13.406;2022-09-17T10:25:04;99977.09;;;25.15;35.22
37450;BME280;23309;52.582;13.406;2022-09-17T10:27:31;99983.09;;;25.29;35.12
37450;BME280;23309;52.582;13.406;2022-09-17T10:30:13;99982.63;;;25.48;33.99
37450;BME280;23309;52.582;13.406;2022-09-17T10:32:40;99976.38;;;25.53;32.84
37450;BME280;23309;52.582;13.406;2022-09-17T10:35:32;100006.78;;;25.40;34.28
37450;BME280;23309;52.582;13.406;2022-09-17T10:38:01;100015.50;;;24.53;38.23
37450;BME280;23309;52.582;13.406;2022-09-17T10:40:30;99997.56;;;23.83;38.86
37450;BME280;23309;52.582;13.406;2022-09-17T10:43:21;100016.78;;;23.65;39.87
37450;BME280;23309;52.582;13.406;2022-09-17T10:45:56;100009.75;;;23.23;40.55
37450;BME280;23309;52.582;13.406;2022-09-17T10:48:23;99990.53;;;22.77;41.20
37450;BME280;23309;52.582;13.406;2022-09-17T10:50:52;99987.28;;;22.68;42.62
37450;BME280;23309;52.582;13.406;2022-09-17T10:53:24;99995.91;;;22.95;42.61
37450;BME280;23309;52.582;13.406;2022-09-17T10:55:57;99992.44;;;23.29;41.98
37450;BME280;23309;52.582;13.406;2022-09-17T10:58:50;100008.03;;;23.74;41.32
37450;BME280;23309;52.582;13.406;2022-09-17T11:01:32;99973.16;;;23.65;41.15
37450;BME280;23309;52.582;13.406;2022-09-17T11:04:20;99947.19;;;23.74;39.89
37450;BME280;23309;52.582;13.406;2022-09-17T11:07:32;99998.03;;;24.14;39.23
37450;BME280;23309;52.582;13.406;2022-09-17T11:10:13;99996.41;;;24.13;39.19
37450;BME280;23309;52.582;13.406;2022-09-17T11:12:56;99923.25;;;23.76;38.75
37450;BME280;23309;52.582;13.406;2022-09-17T11:15:50;100009.25;;;24.41;38.46
37450;BME280;23309;52.582;13.406;2022-09-17T11:18:35;99999.19;;;24.30;36.50
37450;BME280;23309;52.582;13.406;2022-09-17T11:21:31;100003.72;;;24.24;35.93
37450;BME280;23309;52.582;13.406;2022-09-17T11:24:26;100003.47;;;24.26;36.59
37450;BME280;23309;52.582;13.406;2022-09-17T11:27:07;100002.41;;;24.27;37.08
37450;BME280;23309;52.582;13.406;2022-09-17T11:29:58;99907.25;;;24.19;36.03
37450;BME280;23309;52.582;13.406;2022-09-17T11:32:53;99979.47;;;24.95;33.99
37450;BME280;23309;52.582;13.406;2022-09-17T11:35:29;99983.38;;;24.83;34.02
37450;BME280;23309;52.582;13.406;2022-09-17T11:38:03;99994.97;;;24.62;34.03
37450;BME280;23309;52.582;13.406;2022-09-17T11:40:39;100005.13;;;24.27;36.30
37450;BME280;23309;52.582;13.406;2022-09-17T11:43:18;100011.44;;;23.70;38.11
37450;BME280;23309;52.582;13.406;2022-09-17T11:45:57;100000.44;;;23.12;39.27
37450;BME280;23309;52.582;13.406;2022-09-17T11:48:32;100001.59;;;22.93;39.83
37450;BME280;23309;52.582;13.406;2022-09-17T11:51:09;100000.47;;;22.83;40.75
37450;BME280;23309;52.582;13.406;2022-09-17T11:53:42;100008.75;;;22.76;40.84
37450;BME280;23309;52.582;13.406;2022-09-17T11:56:17;100003.56;;;22.86;41.04
37450;BME280;23309;52.582;13.406;2022-09-17T11:58:53;99977.03;;;22.82;40.27
37450;BME280;23309;52.582;13.406;2022-09-17T12:01:29;99969.16;;;23.03;41.21
37450;BME280;23309;52.582;13.406;2022-09-17T12:04:01;99985.47;;;23.44;39.77
37450;BME280;23309;52.582;13.406;2022-09-17T12:06:37;99979.31;;;23.83;38.90
37450;BME280;23309;52.582;13.406;2022-09-17T12:09:12;99982.38;;;24.10;38.27
37450;BME280;23309;52.582;13.406;2022-09-17T12:11:45;99983.44;;;24.48;37.92
37450;BME280;23309;52.582;13.406;2022-09-17T12:14:25;99963.78;;;24.74;36.32
37450;BME280;23309;52.582;13.406;2022-09-17T12:17:01;99910.72;;;24.70;35.09
37450;BME280;23309;52.582;13.406;2022-09-17T12:19:34;99980.75;;;25.21;35.44
37450;BME280;23309;52.582;13.406;2022-09-17T12:22:07;99978.53;;;25.34;33.26
37450;BME280;23309;52.582;13.406;2022-09-17T12:24:34;99962.56;;;25.43;33.12
37450;BME280;23309;52.582;13.406;2022-09-17T12:27:28;99984.25;;;26.04;32.34
37450;BME280;23309;52.582;13.406;2022-09-17T12:30:10;99967.94;;;26.09;31.65
37450;BME280;23309;52.582;13.406;2022-09-17T12:36:16;99965.63;;;26.01;30.19
37450;BME280;23309;52.582;13.406;2022-09-17T12:39:45;99954.13;;;25.83;30.94
37450;BME280;23309;52.582;13.406;2022-09-17T12:42:36;99960.84;;;25.75;30.82
37450;BME280;23309;52.582;13.406;2022-09-17T12:45:56;99959.97;;;26.08;30.86
37450;BME280;23309;52.582;13.406;2022-09-17T12:49:18;99940.41;;;25.99;29.56
37450;BME280;23309;52.582;13.406;2022-09-17T12:51:54;99947.66;;;25.72;29.93
37450;BME280;23309;52.582;13.406;2022-09-17T12:54:55;99951.56;;;25.76;31.02
37450;BME280;23309;52.582;13.406;2022-09-17T12:57:38;99954.88;;;25.95;30.61
37450;BME280;23309;52.582;13.406;2022-09-17T13:00:14;99942.50;;;26.35;29.85
37450;BME280;23309;52.582;13.406;2022-09-17T13:02:45;99940.19;;;26.70;29.40
37450;BME280;23309;52.582;13.406;2022-09-17T13:05:57;99930.34;;;27.01;28.96
37450;BME280;23309;52.582;13.406;2022-09-17T13:09:16;99942.09;;;27.28;27.96
37450;BME280;23309;52.582;13.406;2022-09-17T13:12:07;99939.03;;;27.19;26.91
37450;BME280;23309;52.582;13.406;2022-09-17T13:14:59;99930.16;;;27.44;27.42
37450;BME280;23309;52.582;13.406;2022-09-17T13:17:45;99902.00;;;27.53;26.20
37450;BME280;23309;52.582;13.406;2022-09-17T13:20:19;99910.91;;;27.75;25.93
37450;BME280;23309;52.582;13.406;2022-09-17T13:22:49;99947.00;;;28.04;25.87
37450;BME280;23309;52.582;13.406;2022-09-17T13:25:19;99896.47;;;28.00;25.10
37450;BME280;23309;52.582;13.406;2022-09-17T13:27:47;99937.53;;;28.36;24.78
37450;BME280;23309;52.582;13.406;2022-09-17T13:30:16;99934.56;;;28.43;25.06
37450;BME280;23309;52.582;13.406;2022-09-17T13:32:52;99912.53;;;28.23;24.96